Time;durP1;ratioP1;P1;durP2;ratioP2;P2;SDS_P1;SDS_P2;PMS_P1;PMS_P2;Temp;Humidity;BMP_temperature;BMP_pressure;BME280_temperature;BME280_humidity;BME280_pressure;Samples;Min_cycle;Max_cycle;Signal;HPM_P1;HPM_P2
2023/01/29 00:02:22;;;;;;;7.35;4.28;;;5.20;66.50;;;;;;2333548;53;21100;-75
2023/01/29 00:04:48;;;;;;;8.45;5.07;;;5.20;66.50;;;;;;2310929;54;21470;-70
2023/01/29 00:07:14;;;;;;;9.60;5.45;;;5.20;66.50;;;;;;2304628;54;22087;-70
2023/01/29 00:09:40;;;;;;;8.93;4.87;;;5.20;66.40;;;;;;2304785;54;20972;-74
2023/01/29 00:12:07;;;;;;;9.85;4.85;;;5.20;66.30;;;;;;2304188;54;21457;-70
2023/01/29 00:14:34;;;;;;;8.20;4.30;;;5.10;66.20;;;;;;2304646;54;21008;-73
2023/01/29 00:17:00;;;;;;;7.57;4.35;;;5.10;66.30;;;;;;2304718;54;21463;-74
2023/01/29 00:19:26;;;;;;;8.55;4.60;;;5.10;66.30;;;;;;2326910;53;21471;-70
2023/01/29 00:21:53;;;;;;;8.13;4.50;;;5.10;66.30;;;;;;2304231;54;21407;-74
2023/01/29 00:24:19;;;;;;;8.73;4.90;;;5.20;66.40;;;;;;2304621;54;20952;-72
2023/01/29 00:26:45;;;;;;;8.98;5.22;;;5.10;66.30;;;;;;2304624;54;21521;-70
2023/01/29 00:29:11;;;;;;;7.53;4.82;;;5.10;66.30;;;;;;2304847;54;20968;-72
2023/01/29 00:31:38;;;;;;;8.63;5.03;;;5.10;66.20;;;;;;2304381;54;20964;-75
2023/01/29 00:34:04;;;;;;;10.95;5.72;;;5.10;66.20;;;;;;2305047;53;20955;-74
2023/01/29 00:36:31;;;;;;;9.48;5.62;;;5.10;66.10;;;;;;2304317;53;21367;-71
2023/01/29 00:38:58;;;;;;;8.27;5.28;;;5.10;66.10;;;;;;2304699;54;21982;-72
2023/01/29 00:46:57;;;;;;;8.80;4.82;;;5.10;66.10;;;;;;2282913;55;20985;-72
2023/01/29 00:49:24;;;;;;;8.00;4.57;;;5.10;66.10;;;;;;2305428;54;20936;-71
2023/01/29 00:54:35;;;;;;;9.52;5.62;;;5.00;66.10;;;;;;2305731;54;21072;-74
2023/01/29 00:57:02;;;;;;;10.82;5.43;;;5.00;66.10;;;;;;2305899;54;20945;-71
2023/01/29 00:59:28;;;;;;;10.18;5.55;;;5.00;66.10;;;;;;2524204;53;21005;-71
2023/01/29 01:06:02;;;;;;;8.48;5.12;;;5.00;66.10;;;;;;2371619;53;21508;-74
2023/01/29 01:11:13;;;;;;;9.75;5.28;;;4.90;65.90;;;;;;2304447;54;21147;-72
2023/01/29 01:13:39;;;;;;;9.57;5.40;;;5.00;66.10;;;;;;2304632;54;21084;-72
2023/01/29 01:16:12;;;;;;;11.05;5.45;;;4.90;66.10;;;;;;2304886;54;21498;-70
2023/01/29 01:18:39;;;;;;;10.18;5.75;;;5.00;66.20;;;;;;2380580;53;21578;-72
2023/01/29 01:21:05;;;;;;;8.95;5.43;;;4.90;66.20;;;;;;2465394;53;20984;-71
2023/01/29 01:23:31;;;;;;;10.95;5.72;;;4.90;66.20;;;;;;2304019;54;20964;-72
2023/01/29 01:25:58;;;;;;;9.23;5.75;;;5.00;66.30;;;;;;2304607;54;20961;-70
2023/01/29 01:28:24;;;;;;;7.75;4.75;;;4.90;66.30;;;;;;2304378;54;21453;-70
2023/01/29 01:30:50;;;;;;;8.88;5.18;;;5.00;66.40;;;;;;2322710;53;21972;-72
2023/01/29 01:33:17;;;;;;;9.30;4.72;;;4.90;66.40;;;;;;2553025;53;21047;-71
2023/01/29 01:35:43;;;;;;;7.65;4.55;;;4.90;66.40;;;;;;2304662;54;20992;-69
2023/01/29 01:38:10;;;;;;;11.50;5.72;;;4.90;66.30;;;;;;2304927;54;20944;-72
2023/01/29 01:40:36;;;;;;;9.13;5.15;;;4.90;66.30;;;;;;2304620;54;20960;-74
2023/01/29 01:43:02;;;;;;;11.40;5.95;;;4.90;66.30;;;;;;2354476;53;21529;-71
2023/01/29 01:45:35;;;;;;;9.60;6.12;;;5.00;66.30;;;;;;2304175;54;21056;-74
2023/01/29 01:48:11;;;;;;;;;;;4.90;65.90;;;;;;2516235;54;21000;-73
2023/01/29 01:50:47;;;;;;;11.68;5.68;;;5.00;65.40;;;;;;2304691;54;20507;-73
2023/01/29 01:53:20;;;;;;;10.35;5.82;;;4.90;65.90;;;;;;2359444;53;21376;-73
2023/01/29 01:55:48;;;;;;;10.43;6.03;;;4.90;65.80;;;;;;2304370;54;21123;-71
2023/01/29 01:58:20;;;;;;;11.52;6.07;;;4.90;65.90;;;;;;2304404;54;21391;-74
2023/01/29 02:00:46;;;;;;;9.43;5.45;;;4.80;65.80;;;;;;2304590;54;21088;-72
2023/01/29 02:11:40;;;;;;;7.47;4.85;;;4.80;65.90;;;;;;2304398;54;21513;-74
2023/01/29 02:14:07;;;;;;;8.00;5.00;;;4.90;66.10;;;;;;2304659;54;20937;-71
2023/01/29 02:16:34;;;;;;;7.62;4.75;;;4.80;66.00;;;;;;2304659;54;21056;-72
2023/01/29 02:19:01;;;;;;;8.40;4.93;;;4.70;65.90;;;;;;2304307;54;21072;-72
2023/01/29 02:22:05;;;;;;;9.20;5.10;;;4.70;66.00;;;;;;2303474;54;21679;-69
2023/01/29 02:24:57;;;;;;;8.15;4.95;;;4.80;65.60;;;;;;2303388;54;21240;-70
2023/01/29 02:27:31;;;;;;;8.70;5.35;;;4.70;66.10;;;;;;2475314;53;21623;-72
2023/01/29 02:36:49;;;;;;;8.07;4.62;;;4.70;65.90;;;;;;2303423;54;21498;-70
2023/01/29 02:42:16;;;;;;;6.80;3.72;;;4.70;65.20;;;;;;2303554;54;20943;-69
2023/01/29 02:44:47;;;;;;;7.80;4.35;;;4.70;65.60;;;;;;2303609;54;21088;-70
2023/01/29 02:47:22;;;;;;;9.75;4.43;;;4.60;65.90;;;;;;2303773;54;21030;-71
2023/01/29 02:49:58;;;;;;;9.05;4.95;;;4.60;65.80;;;;;;2303235;54;21392;-72
2023/01/29 02:52:34;;;;;;;8.27;4.70;;;4.60;66.10;;;;;;2302639;54;21485;-70
2023/01/29 02:55:36;;;;;;;7.40;4.28;;;4.60;66.00;;;;;;2303902;54;21600;-74
2023/01/29 02:59:38;;;;;;;8.65;4.43;;;4.60;66.10;;;;;;2303956;54;21499;-69
2023/01/29 03:02:16;;;;;;;7.22;4.05;;;4.60;65.40;;;;;;2363831;53;21399;-70
2023/01/29 03:04:46;;;;;;;7.55;4.18;;;4.60;66.00;;;;;;2398658;53;20940;-71
2023/01/29 03:07:41;;;;;;;7.97;4.40;;;4.60;66.20;;;;;;2303541;54;21005;-74
2023/01/29 03:10:30;;;;;;;9.32;5.03;;;4.60;66.20;;;;;;2516503;53;20938;-72
2023/01/29 03:13:07;;;;;;;6.45;4.12;;;4.60;65.90;;;;;;2321213;53;21033;-72
2023/01/29 03:15:45;;;;;;;6.93;3.83;;;4.60;66.30;;;;;;2304111;54;21652;-74
2023/01/29 03:18:15;;;;;;;7.32;4.05;;;4.70;66.40;;;;;;2390964;53;20949;-71
2023/01/29 03:20:49;;;;;;;7.80;4.37;;;4.70;66.50;;;;;;2304757;54;20976;-72
2023/01/29 03:23:25;;;;;;;6.87;4.20;;;4.70;66.40;;;;;;2317288;54;20973;-70
2023/01/29 03:34:15;;;;;;;8.13;4.75;;;4.70;66.10;;;;;;2426139;53;20941;-75
2023/01/29 03:36:54;;;;;;;8.20;4.90;;;4.70;66.10;;;;;;2304686;54;21339;-72
2023/01/29 03:39:21;;;;;;;8.15;4.60;;;4.70;66.10;;;;;;2304068;54;21336;-74
2023/01/29 03:46:22;;;;;;;7.95;4.55;;;4.70;66.30;;;;;;2304330;54;20964;-71
2023/01/29 03:49:20;;;;;;;7.85;4.10;;;4.70;65.30;;;;;;2304425;54;20952;-73
2023/01/29 03:51:55;;;;;;;6.65;3.67;;;4.70;65.80;;;;;;2304296;54;21569;-70
2023/01/29 03:55:09;;;;;;;7.18;3.80;;;4.70;66.00;;;;;;2304780;54;21397;-71
2023/01/29 03:57:57;;;;;;;6.60;3.97;;;4.70;65.90;;;;;;2304351;54;21776;-72
2023/01/29 04:00:27;;;;;;;10.07;4.65;;;4.60;66.10;;;;;;2522882;53;20999;-70
2023/01/29 04:03:38;;;;;;;9.45;4.72;;;4.70;66.30;;;;;;2309746;53;21954;-72
2023/01/29 04:06:12;;;;;;;7.47;4.53;;;4.70;65.70;;;;;;2316836;53;21083;-74
2023/01/29 04:08:53;;;;;;;7.62;4.40;;;4.70;66.30;;;;;;2460719;53;21009;-71
2023/01/29 04:11:20;;;;;;;8.00;4.87;;;4.70;66.00;;;;;;2304885;54;21128;-72
2023/01/29 04:13:46;;;;;;;7.85;4.10;;;4.70;66.20;;;;;;2320956;54;20957;-73
2023/01/29 04:16:16;;;;;;;6.75;4.32;;;4.70;66.20;;;;;;2450279;53;21080;-73
2023/01/29 04:18:46;;;;;;;7.90;4.70;;;4.70;66.00;;;;;;2304699;54;22281;-71
2023/01/29 04:21:13;;;;;;;9.43;5.50;;;4.70;65.90;;;;;;2306016;54;21451;-73
2023/01/29 04:23:39;;;;;;;8.20;4.82;;;4.70;65.90;;;;;;2304356;54;20967;-71
2023/01/29 04:27:10;;;;;;;7.12;3.85;;;4.70;65.90;;;;;;2304993;54;21599;-73
2023/01/29 04:31:28;;;;;;;7.32;4.18;;;4.60;65.40;;;;;;2304189;54;21561;-71
2023/01/29 04:34:12;;;;;;;6.53;3.95;;;4.60;65.40;;;;;;2304496;54;21413;-72
2023/01/29 04:36:59;;;;;;;7.78;4.20;;;4.60;65.60;;;;;;2308519;53;21299;-74
2023/01/29 04:39:53;;;;;;;7.95;4.40;;;4.60;65.50;;;;;;2330038;53;21397;-73
2023/01/29 04:43:25;;;;;;;8.23;4.68;;;4.50;65.70;;;;;;2304752;54;21628;-73
2023/01/29 04:47:53;;;;;;;8.55;4.70;;;4.50;65.20;;;;;;2305248;54;20961;-74
2023/01/29 04:51:57;;;;;;;8.98;4.43;;;4.50;65.00;;;;;;2304755;54;20933;-72
2023/01/29 04:56:35;;;;;;;8.13;4.18;;;4.50;65.10;;;;;;2304907;54;21040;-73
2023/01/29 04:59:04;;;;;;;8.00;4.37;;;4.50;65.60;;;;;;2304569;54;21088;-72
2023/01/29 05:01:32;;;;;;;7.07;3.90;;;4.50;66.00;;;;;;2304491;54;22057;-74
2023/01/29 05:03:59;;;;;;;8.57;5.00;;;4.50;66.10;;;;;;2304763;54;21450;-69
2023/01/29 05:06:25;;;;;;;11.15;5.55;;;4.40;66.10;;;;;;2304367;54;21475;-69
2023/01/29 05:08:51;;;;;;;9.10;4.50;;;4.50;66.30;;;;;;2304341;54;20960;-73
2023/01/29 05:11:18;;;;;;;8.80;4.95;;;4.50;66.20;;;;;;2304447;54;21038;-69
2023/01/29 05:13:44;;;;;;;8.55;5.03;;;4.50;66.20;;;;;;2329275;54;20961;-72
2023/01/29 05:16:22;;;;;;;7.80;4.55;;;4.50;66.30;;;;;;2305050;54;21635;-70
2023/01/29 05:18:49;;;;;;;8.50;4.35;;;4.50;66.20;;;;;;2317030;53;21022;-71
2023/01/29 05:21:15;;;;;;;9.05;4.72;;;4.50;66.30;;;;;;2564339;53;21441;-72
2023/01/29 05:23:51;;;;;;;8.10;4.53;;;4.50;66.20;;;;;;2304587;54;20940;-73
2023/01/29 05:29:05;;;;;;;7.80;4.80;;;4.50;65.90;;;;;;2318504;53;20940;-70
2023/01/29 05:31:31;;;;;;;10.35;5.32;;;4.50;65.90;;;;;;2304451;54;20948;-70
2023/01/29 05:33:58;;;;;;;8.27;4.47;;;4.50;66.00;;;;;;2353932;53;21483;-71
2023/01/29 05:36:25;;;;;;;8.80;4.97;;;4.50;66.00;;;;;;2304365;54;21003;-75
2023/01/29 05:38:51;;;;;;;9.98;5.07;;;4.50;66.00;;;;;;2304292;54;21379;-73
2023/01/29 05:41:18;;;;;;;9.55;5.40;;;4.50;66.00;;;;;;2311105;53;21372;-73
2023/01/29 05:43:44;;;;;;;8.68;4.90;;;4.50;66.00;;;;;;2304150;54;21435;-70
2023/01/29 05:46:10;;;;;;;9.43;5.05;;;4.50;66.00;;;;;;2305078;54;21645;-70
2023/01/29 05:48:36;;;;;;;8.98;5.18;;;4.50;66.00;;;;;;2304481;54;20957;-70
2023/01/29 05:51:03;;;;;;;8.27;5.20;;;4.50;66.00;;;;;;2304196;54;21440;-71
2023/01/29 05:53:29;;;;;;;8.77;5.20;;;4.50;65.90;;;;;;2305173;54;20996;-73
2023/01/29 05:55:58;;;;;;;11.25;5.70;;;4.50;65.80;;;;;;2304184;54;22269;-71
2023/01/29 05:58:24;;;;;;;7.93;4.72;;;4.50;65.80;;;;;;2329582;54;21466;-73
2023/01/29 06:00:50;;;;;;;8.48;5.00;;;4.50;65.90;;;;;;2304282;54;21224;-74
2023/01/29 06:03:17;;;;;;;8.35;4.40;;;4.50;65.90;;;;;;2304814;54;20992;-73
2023/01/29 06:05:43;;;;;;;10.43;5.68;;;4.50;66.00;;;;;;2299815;54;21764;-74
2023/01/29 06:08:09;;;;;;;9.70;4.90;;;4.50;65.90;;;;;;2310076;54;21478;-74
2023/01/29 06:10:36;;;;;;;9.70;5.37;;;4.50;66.00;;;;;;2486173;53;21888;-70
2023/01/29 06:13:02;;;;;;;8.15;4.57;;;4.50;66.00;;;;;;2541092;53;21802;-70
2023/01/29 06:15:28;;;;;;;7.93;4.62;;;4.50;65.90;;;;;;2322649;53;20968;-70
2023/01/29 06:17:55;;;;;;;9.20;4.68;;;4.50;65.80;;;;;;2334848;53;21531;-70
2023/01/29 06:20:21;;;;;;;7.70;4.35;;;4.50;65.70;;;;;;2299224;54;20968;-71
2023/01/29 06:22:47;;;;;;;7.93;4.68;;;4.50;65.60;;;;;;2298501;54;21028;-74
2023/01/29 06:25:13;;;;;;;9.13;4.70;;;4.50;65.60;;;;;;2448196;53;20997;-73
2023/01/29 06:27:40;;;;;;;8.75;5.22;;;4.50;65.60;;;;;;2299583;54;20972;-74
2023/01/29 06:30:11;;;;;;;6.70;4.10;;;4.50;65.50;;;;;;2440764;53;20958;-73
2023/01/29 06:32:37;;;;;;;9.48;4.87;;;4.50;65.50;;;;;;2305938;53;21293;-72
2023/01/29 06:35:04;;;;;;;9.50;5.25;;;4.50;65.50;;;;;;2293545;54;21450;-72
2023/01/29 06:37:30;;;;;;;9.88;5.55;;;4.50;65.50;;;;;;2519427;53;21584;-70
2023/01/29 06:39:57;;;;;;;9.05;5.10;;;4.40;65.30;;;;;;2309189;54;21410;-74
2023/01/29 06:42:26;;;;;;;9.40;5.00;;;4.40;65.30;;;;;;2391297;53;21571;-73
2023/01/29 06:44:56;;;;;;;9.15;5.25;;;4.40;65.20;;;;;;2293182;53;22063;-73
2023/01/29 06:47:25;;;;;;;8.50;4.95;;;4.30;65.10;;;;;;2271196;55;21738;-73
2023/01/29 06:49:52;;;;;;;11.02;5.57;;;4.40;65.90;;;;;;2293549;54;21344;-72
2023/01/29 06:52:18;;;;;;;7.85;4.57;;;4.30;65.20;;;;;;2367965;53;21567;-70
2023/01/29 06:54:44;;;;;;;9.13;5.03;;;4.30;65.20;;;;;;2297206;54;21595;-70
2023/01/29 06:57:11;;;;;;;9.50;5.32;;;4.30;65.30;;;;;;2307610;54;22088;-73
2023/01/29 06:59:37;;;;;;;9.10;5.28;;;4.30;65.40;;;;;;2294820;54;21866;-70
2023/01/29 07:02:03;;;;;;;8.38;4.60;;;4.30;65.50;;;;;;2293700;54;21474;-70
2023/01/29 07:04:30;;;;;;;10.63;5.68;;;4.30;65.60;;;;;;2293873;54;20948;-71
2023/01/29 07:06:57;;;;;;;11.60;6.07;;;4.30;65.50;;;;;;2314758;53;21572;-70
2023/01/29 07:09:24;;;;;;;8.50;5.20;;;4.30;65.60;;;;;;2539757;53;22115;-72
2023/01/29 07:11:50;;;;;;;10.30;5.68;;;4.30;65.60;;;;;;2294286;54;21435;-72
2023/01/29 07:14:16;;;;;;;11.38;6.85;;;4.30;65.60;;;;;;2293646;54;21275;-73
2023/01/29 07:16:42;;;;;;;10.00;5.62;;;4.30;65.60;;;;;;2293283;54;21146;-71
2023/01/29 07:19:09;;;;;;;10.15;5.68;;;4.30;65.60;;;;;;2315550;53;21364;-74
2023/01/29 07:21:36;;;;;;;11.32;5.68;;;4.30;65.60;;;;;;2292918;54;22317;-73
2023/01/29 07:24:02;;;;;;;13.07;6.57;;;4.30;65.60;;;;;;2294577;53;21732;-69
2023/01/29 07:26:28;;;;;;;9.13;5.28;;;4.30;65.60;;;;;;2293208;54;21999;-73
2023/01/29 07:28:54;;;;;;;9.73;5.25;;;4.20;65.60;;;;;;2389418;53;21529;-71
2023/01/29 07:31:21;;;;;;;8.75;5.35;;;4.30;66.30;;;;;;2293092;54;21404;-72
2023/01/29 07:33:47;;;;;;;9.52;5.45;;;4.30;65.60;;;;;;2292566;54;21483;-73
2023/01/29 07:36:14;;;;;;;10.50;5.43;;;4.30;65.60;;;;;;2293700;54;21725;-73
2023/01/29 07:38:40;;;;;;;10.40;5.50;;;4.30;65.60;;;;;;2293125;54;21555;-73
2023/01/29 07:41:07;;;;;;;10.07;5.25;;;4.30;65.60;;;;;;2420170;53;21966;-73
2023/01/29 07:43:34;;;;;;;9.27;4.82;;;4.30;65.60;;;;;;2293587;54;20971;-73
2023/01/29 07:46:01;;;;;;;10.80;5.90;;;4.30;65.60;;;;;;2293284;54;21421;-70
2023/01/29 07:48:28;;;;;;;9.80;5.90;;;4.30;65.60;;;;;;2293684;54;21577;-73
2023/01/29 07:50:54;;;;;;;10.18;5.85;;;4.30;65.60;;;;;;2293412;54;21324;-72
2023/01/29 07:53:21;;;;;;;9.20;5.37;;;4.30;65.60;;;;;;2303414;53;21080;-71
2023/01/29 07:55:47;;;;;;;9.15;5.10;;;4.40;65.60;;;;;;2294069;54;20968;-73
2023/01/29 07:58:14;;;;;;;9.50;5.15;;;4.30;65.60;;;;;;2294551;54;20989;-71
2023/01/29 08:00:40;;;;;;;10.13;6.18;;;4.30;65.60;;;;;;2294919;54;20965;-74
2023/01/29 08:03:10;;;;;;;9.55;5.50;;;4.30;65.70;;;;;;2480487;53;21099;-69
2023/01/29 08:05:37;;;;;;;10.27;5.60;;;4.30;65.60;;;;;;2531267;53;21012;-72
2023/01/29 08:08:03;;;;;;;10.02;5.22;;;4.30;65.70;;;;;;2293501;54;20956;-73
2023/01/29 08:10:34;;;;;;;9.27;5.20;;;4.30;65.70;;;;;;2293570;54;20976;-72
2023/01/29 08:13:00;;;;;;;9.00;5.05;;;4.30;65.70;;;;;;2294063;54;20969;-71
2023/01/29 08:15:29;;;;;;;11.18;5.35;;;4.30;65.80;;;;;;2342140;53;22065;-71
2023/01/29 08:17:56;;;;;;;10.73;5.85;;;4.30;65.80;;;;;;2293392;54;21543;-73
2023/01/29 08:20:24;;;;;;;32.95;15.40;;;4.40;65.90;;;;;;2294070;54;21419;-71
2023/01/29 08:23:00;;;;;;;19.67;11.12;;;4.30;65.80;;;;;;2293125;54;21095;-72
2023/01/29 08:25:27;;;;;;;15.77;8.57;;;4.40;65.70;;;;;;2294157;54;21412;-71
2023/01/29 08:27:55;;;;;;;13.88;7.60;;;4.40;65.80;;;;;;2293473;54;21839;-71
2023/01/29 08:30:21;;;;;;;11.57;6.75;;;4.40;65.70;;;;;;2294201;54;21095;-75
2023/01/29 08:32:48;;;;;;;12.15;6.35;;;4.40;65.60;;;;;;2293596;54;21791;-74
2023/01/29 08:35:14;;;;;;;11.68;6.53;;;4.40;65.60;;;;;;2294255;54;20988;-72
2023/01/29 08:37:40;;;;;;;10.75;5.80;;;4.40;65.60;;;;;;2293591;54;22019;-74
2023/01/29 08:40:09;;;;;;;11.82;5.60;;;4.40;66.30;;;;;;2293710;54;21521;-72
2023/01/29 08:42:35;;;;;;;11.70;5.85;;;4.40;65.70;;;;;;2294219;54;21119;-75
2023/01/29 08:45:02;;;;;;;10.13;5.12;;;4.40;65.70;;;;;;2293454;54;20984;-72
2023/01/29 08:47:28;;;;;;;11.07;6.12;;;4.40;65.70;;;;;;2293984;54;20971;-70
2023/01/29 08:49:55;;;;;;;10.82;5.55;;;4.50;65.80;;;;;;2293733;54;21029;-73
2023/01/29 08:52:21;;;;;;;11.15;5.55;;;4.50;65.70;;;;;;2500878;53;20995;-72
2023/01/29 08:54:48;;;;;;;9.80;5.35;;;4.50;65.90;;;;;;2331472;53;21963;-70
2023/01/29 08:57:14;;;;;;;8.98;5.25;;;4.50;65.90;;;;;;2293326;54;21284;-70
2023/01/29 08:59:40;;;;;;;9.98;5.22;;;4.50;65.90;;;;;;2293522;54;20933;-72
2023/01/29 09:02:07;;;;;;;9.43;5.15;;;4.50;65.90;;;;;;2377661;53;21941;-69
2023/01/29 09:04:34;;;;;;;10.40;5.30;;;4.50;65.90;;;;;;2332761;53;21339;-73
2023/01/29 09:07:00;;;;;;;10.32;5.65;;;4.50;65.80;;;;;;2293484;54;21822;-74
2023/01/29 09:09:26;;;;;;;10.60;5.90;;;4.60;65.90;;;;;;2293964;54;21466;-72
2023/01/29 09:11:52;;;;;;;10.65;5.70;;;4.60;65.90;;;;;;2531389;53;20985;-73
2023/01/29 09:14:19;;;;;;;10.38;5.43;;;4.70;66.00;;;;;;2293889;54;21569;-73
2023/01/29 09:16:45;;;;;;;10.65;6.07;;;4.60;65.80;;;;;;2293449;54;20972;-72
2023/01/29 09:19:11;;;;;;;10.93;6.22;;;4.60;65.80;;;;;;2293944;54;21518;-73
2023/01/29 09:21:38;;;;;;;10.68;5.85;;;4.60;65.80;;;;;;2293629;54;21019;-73
2023/01/29 09:24:05;;;;;;;10.07;5.60;;;4.70;66.00;;;;;;2293742;54;21505;-75
2023/01/29 09:26:31;;;;;;;9.98;5.62;;;4.70;65.90;;;;;;2293808;54;21511;-73
2023/01/29 09:28:57;;;;;;;9.75;5.70;;;4.70;66.00;;;;;;2294024;54;21383;-73
2023/01/29 09:31:24;;;;;;;10.90;6.22;;;4.70;66.00;;;;;;2293594;54;20984;-72
2023/01/29 09:33:50;;;;;;;15.07;6.40;;;4.80;66.10;;;;;;2321035;53;21576;-74
2023/01/29 09:36:16;;;;;;;11.80;6.47;;;4.80;66.20;;;;;;2293994;53;22501;-72
2023/01/29 09:38:43;;;;;;;10.65;5.82;;;4.80;66.20;;;;;;2299619;54;20968;-71
2023/01/29 09:42:41;;;;;;;9.25;5.35;;;4.80;66.10;;;;;;2293563;54;21586;-73
2023/01/29 09:45:13;;;;;;;9.55;4.75;;;4.90;65.30;;;;;;2293919;54;21468;-74
2023/01/29 09:47:40;;;;;;;10.10;5.15;;;5.00;66.30;;;;;;2293836;54;21452;-71
2023/01/29 09:50:51;;;;;;;10.05;5.35;;;5.00;66.40;;;;;;2381851;53;20988;-73
2023/01/29 09:53:32;;;;;;;9.23;5.30;;;5.00;65.80;;;;;;2511087;53;21025;-72
2023/01/29 09:56:18;;;;;;;11.38;6.10;;;5.10;66.20;;;;;;2361046;53;20964;-73
2023/01/29 09:58:45;;;;;;;10.95;5.95;;;5.10;66.30;;;;;;2349315;53;20972;-70
2023/01/29 10:01:34;;;;;;;11.05;5.53;;;5.10;66.20;;;;;;2319723;53;20982;-74
2023/01/29 10:04:19;;;;;;;10.85;6.05;;;5.20;66.10;;;;;;2305085;53;20945;-70
2023/01/29 10:10:11;;;;;;;11.40;5.55;;;5.20;66.20;;;;;;2293350;54;21459;-75
2023/01/29 10:13:01;;;;;;;11.63;7.35;;;5.20;65.90;;;;;;2323919;54;21601;-75
2023/01/29 10:15:37;;;;;;;11.65;7.45;;;5.30;66.30;;;;;;2294027;54;21554;-74
2023/01/29 10:21:12;;;;;;;13.27;7.65;;;5.40;66.60;;;;;;2431380;53;21415;-74
2023/01/29 10:23:52;;;;;;;12.60;6.68;;;5.50;65.70;;;;;;2293201;54;21301;-75
2023/01/29 10:26:20;;;;;;;11.50;6.55;;;5.50;66.70;;;;;;2462654;53;21076;-73
2023/01/29 10:28:48;;;;;;;10.77;5.95;;;5.60;67.10;;;;;;2531473;53;21467;-72
2023/01/29 10:31:23;;;;;;;10.88;6.35;;;5.70;67.30;;;;;;2531449;53;21379;-71
2023/01/29 10:33:58;;;;;;;11.90;6.87;;;5.70;67.10;;;;;;2293216;54;21048;-76
2023/01/29 10:36:41;;;;;;;11.98;6.53;;;5.80;66.90;;;;;;2293399;54;21232;-71
2023/01/29 10:39:21;;;;;;;10.60;6.55;;;5.80;67.00;;;;;;2293655;54;21000;-71
2023/01/29 10:43:13;;;;;;;10.68;6.00;;;5.90;67.10;;;;;;2293030;54;20964;-70
2023/01/29 10:45:53;;;;;;;10.65;5.93;;;6.00;66.10;;;;;;2293387;54;21886;-71
2023/01/29 10:55:26;;;;;;;10.25;5.40;;;6.00;66.80;;;;;;2293949;54;21583;-73
2023/01/29 10:58:34;;;;;;;8.50;4.07;;;6.10;66.40;;;;;;2293900;54;20948;-73
2023/01/29 11:01:01;;;;;;;10.75;5.45;;;6.30;66.10;;;;;;2315036;53;21079;-74
2023/01/29 11:03:29;;;;;;;9.40;4.97;;;6.30;66.70;;;;;;2317630;53;20963;-72
2023/01/29 11:06:38;;;;;;;10.50;6.40;;;6.30;66.60;;;;;;2294284;53;21473;-74
2023/01/29 11:10:09;;;;;;;10.52;5.95;;;6.30;65.50;;;;;;2293228;54;21522;-74
2023/01/29 11:12:37;;;;;;;8.82;5.15;;;6.30;65.30;;;;;;2293225;54;21245;-72
2023/01/29 11:15:15;;;;;;;8.68;4.95;;;6.40;66.30;;;;;;2322326;53;21434;-71
2023/01/29 11:18:09;;;;;;;9.43;5.57;;;6.40;66.30;;;;;;2368737;53;20976;-72
2023/01/29 11:20:35;;;;;;;9.35;5.05;;;6.40;65.80;;;;;;2293264;54;20969;-74
2023/01/29 11:23:02;;;;;;;9.65;5.72;;;6.40;66.30;;;;;;2438046;53;21467;-72
2023/01/29 11:25:28;;;;;;;8.40;4.82;;;6.40;66.20;;;;;;2382287;53;21552;-72
2023/01/29 11:27:55;;;;;;;8.65;4.60;;;6.40;66.10;;;;;;2293119;54;21475;-72
2023/01/29 11:30:55;;;;;;;10.35;5.20;;;6.50;66.30;;;;;;2293393;54;20965;-72
2023/01/29 11:33:22;;;;;;;9.75;5.28;;;6.50;65.60;;;;;;2293902;54;21483;-75
2023/01/29 11:35:48;;;;;;;9.15;5.55;;;6.50;66.30;;;;;;2531028;53;20960;-74
2023/01/29 11:38:22;;;;;;;10.70;5.43;;;6.50;66.30;;;;;;2293745;54;21508;-75
2023/01/29 11:40:49;;;;;;;12.45;6.47;;;6.60;66.10;;;;;;2293110;54;21522;-73
2023/01/29 11:43:29;;;;;;;12.18;6.30;;;6.60;66.30;;;;;;2293455;54;21024;-71
2023/01/29 11:46:03;;;;;;;10.40;6.30;;;6.60;66.00;;;;;;2293103;54;21982;-74
2023/01/29 11:48:50;;;;;;;10.63;5.80;;;6.70;66.00;;;;;;2420936;53;21723;-71
2023/01/29 11:51:34;;;;;;;12.15;6.57;;;6.70;65.50;;;;;;2446699;53;21583;-73
2023/01/29 11:54:01;;;;;;;10.52;6.57;;;6.70;65.60;;;;;;2293352;54;21548;-73
2023/01/29 11:56:50;;;;;;;11.90;7.05;;;6.70;66.10;;;;;;2308149;53;22040;-72
2023/01/29 12:00:23;;;;;;;10.18;5.95;;;6.80;66.00;;;;;;2499438;53;20992;-73
2023/01/29 12:04:23;;;;;;;9.82;5.12;;;6.80;65.60;;;;;;2306655;54;22219;-72
2023/01/29 12:06:51;;;;;;;10.05;4.68;;;6.90;65.60;;;;;;2295296;54;20961;-72
2023/01/29 12:09:22;;;;;;;10.77;5.85;;;6.90;66.60;;;;;;2392126;53;21710;-72
2023/01/29 12:11:50;;;;;;;8.38;5.18;;;7.00;66.50;;;;;;2292891;54;21135;-72
2023/01/29 12:14:32;;;;;;;7.97;5.00;;;7.00;66.60;;;;;;2377690;53;21360;-72
2023/01/29 12:17:18;;;;;;;9.13;5.67;;;7.00;66.10;;;;;;2527670;53;21392;-70
2023/01/29 12:20:00;;;;;;;8.40;5.22;;;7.10;65.70;;;;;;2293007;54;20941;-74
2023/01/29 12:22:46;;;;;;;9.15;5.45;;;7.10;65.90;;;;;;2293553;53;21528;-73
2023/01/29 12:25:55;;;;;;;11.82;5.85;;;7.10;65.50;;;;;;2270788;55;21254;-75
2023/01/29 12:28:35;;;;;;;11.85;5.87;;;7.10;65.90;;;;;;2371251;53;21055;-72
2023/01/29 12:31:18;;;;;;;14.02;8.20;;;7.20;66.10;;;;;;2292978;54;21060;-74
2023/01/29 12:35:29;;;;;;;10.18;5.80;;;7.20;65.80;;;;;;2400509;53;20953;-71
2023/01/29 12:38:07;;;;;;;8.60;4.68;;;7.20;65.50;;;;;;2293119;54;21976;-74
2023/01/29 12:40:47;;;;;;;7.87;4.32;;;7.20;66.50;;;;;;2381125;53;21072;-74
2023/01/29 12:43:18;;;;;;;8.00;4.90;;;7.20;65.40;;;;;;2294567;53;21435;-72
2023/01/29 12:45:46;;;;;;;7.57;4.25;;;7.30;65.70;;;;;;2395630;53;21398;-73
2023/01/29 12:48:19;;;;;;;7.82;4.57;;;7.30;65.80;;;;;;2294714;54;21578;-75
2023/01/29 12:50:46;;;;;;;7.20;4.07;;;7.30;65.50;;;;;;2293979;54;20973;-75
2023/01/29 12:53:40;;;;;;;7.15;3.92;;;7.30;65.70;;;;;;2410758;54;21009;-74
2023/01/29 12:56:46;;;;;;;9.23;5.68;;;7.30;65.30;;;;;;2297274;54;20964;-74
2023/01/29 13:00:29;;;;;;;9.18;5.68;;;7.30;65.50;;;;;;2294451;54;20976;-73
2023/01/29 13:06:07;;;;;;;8.43;4.97;;;7.30;65.40;;;;;;2293793;54;21351;-75
2023/01/29 13:08:42;;;;;;;8.07;4.55;;;7.40;64.50;;;;;;2294858;54;21565;-72
2023/01/29 13:11:18;;;;;;;9.25;4.70;;;7.40;65.70;;;;;;2293428;54;20984;-71
2023/01/29 13:13:59;;;;;;;7.53;4.68;;;7.40;65.80;;;;;;2293419;54;21446;-73
2023/01/29 13:16:41;;;;;;;9.60;5.28;;;7.40;65.80;;;;;;2293883;54;21502;-72
2023/01/29 13:19:26;;;;;;;9.20;5.12;;;7.40;65.70;;;;;;2305856;53;21493;-75
2023/01/29 13:21:54;;;;;;;8.70;5.53;;;7.50;65.80;;;;;;2293595;54;21613;-72
2023/01/29 13:24:22;;;;;;;7.57;4.93;;;7.50;66.30;;;;;;2333542;53;21276;-71
2023/01/29 13:26:48;;;;;;;8.57;4.37;;;7.50;65.90;;;;;;2293260;54;21336;-71
2023/01/29 13:29:25;;;;;;;8.32;5.07;;;7.50;65.70;;;;;;2294298;53;21527;-74
2023/01/29 13:31:52;;;;;;;8.07;4.90;;;7.50;65.20;;;;;;2293399;54;21490;-74
2023/01/29 13:34:31;;;;;;;8.63;5.15;;;7.50;65.50;;;;;;2452660;53;21374;-74
2023/01/29 13:37:00;;;;;;;8.52;5.22;;;7.60;65.60;;;;;;2293840;54;20984;-73
2023/01/29 13:39:43;;;;;;;9.32;5.15;;;7.60;65.70;;;;;;2393116;53;21932;-72
2023/01/29 13:42:18;;;;;;;;;;;7.60;65.00;;;;;;2297386;54;21224;-74
2023/01/29 13:44:49;;;;;;;7.15;4.18;;;7.60;64.10;;;;;;2293994;54;20433;-71
2023/01/29 13:47:24;;;;;;;8.00;4.55;;;7.60;65.40;;;;;;2294287;54;21723;-72
2023/01/29 13:50:51;;;;;;;8.48;5.40;;;7.60;65.10;;;;;;2384390;53;21265;-74
2023/01/29 13:53:39;;;;;;;10.20;4.93;;;7.60;64.60;;;;;;2325264;54;21036;-74
2023/01/29 13:57:24;;;;;;;9.40;4.95;;;7.60;65.30;;;;;;2306010;54;21466;-72
2023/01/29 13:59:51;;;;;;;8.15;4.78;;;7.60;64.70;;;;;;2484565;53;21163;-73
2023/01/29 14:02:28;;;;;;;10.40;4.93;;;7.50;65.30;;;;;;2448163;53;21863;-74
2023/01/29 14:08:46;;;;;;;8.40;5.03;;;7.50;65.30;;;;;;2293447;54;21515;-72
2023/01/29 14:11:33;;;;;;;7.00;4.30;;;7.60;65.00;;;;;;2294107;54;20981;-71
2023/01/29 14:14:00;;;;;;;8.68;5.12;;;7.60;64.90;;;;;;2294775;54;21620;-75
2023/01/29 14:16:30;;;;;;;7.93;4.57;;;7.60;65.50;;;;;;2300000;53;21011;-73
2023/01/29 14:18:58;;;;;;;10.68;6.30;;;7.60;65.40;;;;;;2290671;54;21398;-74
2023/01/29 14:21:28;;;;;;;9.25;5.37;;;7.60;65.40;;;;;;2395569;53;21561;-72
2023/01/29 14:24:06;;;;;;;10.02;6.10;;;7.60;65.30;;;;;;2346201;53;21108;-73
2023/01/29 14:26:44;;;;;;;8.30;4.90;;;7.60;65.20;;;;;;2289043;54;21498;-75
2023/01/29 14:29:24;;;;;;;8.77;5.12;;;7.60;64.80;;;;;;2289393;54;20959;-75
2023/01/29 14:32:14;;;;;;;9.48;5.00;;;7.60;64.70;;;;;;2289327;54;21005;-70
2023/01/29 14:34:50;;;;;;;8.55;4.93;;;7.50;64.70;;;;;;2288860;54;21393;-70
2023/01/29 14:37:21;;;;;;;9.32;4.85;;;7.50;64.70;;;;;;2289069;54;20917;-72
2023/01/29 14:40:48;;;;;;;11.02;6.70;;;7.50;64.70;;;;;;2288869;54;20936;-71
2023/01/29 14:43:19;;;;;;;9.02;5.37;;;7.40;63.40;;;;;;2288661;54;21538;-72
2023/01/29 14:45:46;;;;;;;8.02;4.68;;;7.50;64.60;;;;;;2346648;53;21607;-75
2023/01/29 14:48:35;;;;;;;8.30;4.75;;;7.50;64.70;;;;;;2289405;54;21228;-75
2023/01/29 14:51:07;;;;;;;8.95;4.72;;;7.40;63.90;;;;;;2304322;54;20957;-72